createdAt,value
2022-10-29T00:01:22.933Z,100490.03
2022-10-29T00:03:58.720Z,100487.25
2022-10-29T00:06:25.399Z,100493.63
2022-10-29T00:08:52.021Z,100495.22
2022-10-29T00:11:21.270Z,100494.44
2022-10-29T00:13:52.652Z,100499.16
2022-10-29T00:16:21.802Z,100490.84
2022-10-29T00:18:48.940Z,100498.78
2022-10-29T00:21:18.593Z,100490.47
2022-10-29T00:23:45.631Z,100495.22
2022-10-29T00:26:13.479Z,100476.59
2022-10-29T00:28:40.151Z,100474.28
2022-10-29T00:31:24.289Z,100472.28
2022-10-29T00:33:53.170Z,100468.72
2022-10-29T00:36:22.781Z,100463.97
2022-10-29T00:38:50.057Z,100473.09
2022-10-29T00:41:19.685Z,100466.31
2022-10-29T00:44:15.364Z,100463.91
2022-10-29T00:46:55.489Z,100469.44
2022-10-29T00:49:24.792Z,100473.38
2022-10-29T00:51:52.460Z,100474.56
2022-10-29T00:54:19.203Z,100482.88
2022-10-29T00:56:51.846Z,100487.25
2022-10-29T00:59:18.950Z,100484.47
2022-10-29T01:01:48.579Z,100473.81
2022-10-29T01:04:17.533Z,100478.66
2022-10-29T01:06:44.933Z,100477.50
2022-10-29T01:09:11.595Z,100469.16
2022-10-29T01:11:55.022Z,100477.94
2022-10-29T01:14:59.837Z,100474.00
2022-10-29T01:17:56.587Z,100474.44
2022-10-29T01:20:41.099Z,100467.72
2022-10-29T01:24:02.123Z,100458.22
2022-10-29T01:26:49.106Z,100447.94
2022-10-29T01:29:53.189Z,100453.47
2022-10-29T01:32:41.511Z,100452.66
2022-10-29T01:35:22.590Z,100447.13
2022-10-29T01:38:07.818Z,100437.19
2022-10-29T01:40:34.326Z,100430.47
2022-10-29T01:43:12.190Z,100414.63
2022-10-29T01:46:07.880Z,100405.91
2022-10-29T01:48:37.405Z,100398.78
2022-10-29T01:51:12.038Z,100396.44
2022-10-29T01:53:39.317Z,100402.41
2022-10-29T01:56:06.324Z,100400.09
2022-10-29T01:58:35.951Z,100398.19
2022-10-29T02:01:24.113Z,100394.69
2022-10-29T02:04:04.512Z,100389.22
2022-10-29T02:06:48.738Z,100384.53
2022-10-29T02:09:31.711Z,100375.81
2022-10-29T02:12:17.368Z,100371.50
2022-10-29T02:15:07.694Z,100375.09
2022-10-29T02:17:35.360Z,100369.53
2022-10-29T02:20:07.617Z,100373.13
2022-10-29T02:22:34.469Z,100355.31
2022-10-29T02:25:01.644Z,100353.34
2022-10-29T02:27:28.311Z,100364.44
2022-10-29T02:29:54.904Z,100369.19
2022-10-29T02:32:21.743Z,100370.34
2022-10-29T02:34:48.376Z,100370.34
2022-10-29T02:37:15.024Z,100365.63
2022-10-29T02:39:41.597Z,100357.28
2022-10-29T02:42:08.236Z,100352.88
2022-10-29T02:44:34.955Z,100350.09
2022-10-29T02:47:01.601Z,100335.81
2022-10-29T02:49:28.411Z,100339.38
2022-10-29T02:51:55.075Z,100323.06
2022-10-29T02:54:21.658Z,100331.41
2022-10-29T02:56:48.332Z,100328.63
2022-10-29T02:59:14.950Z,100330.25
2022-10-29T03:01:41.663Z,100316.38
2022-10-29T03:04:08.483Z,100319.16
2022-10-29T03:06:35.108Z,100329.53
2022-10-29T03:09:01.704Z,100327.09
2022-10-29T03:11:28.333Z,100323.53
2022-10-29T03:13:54.971Z,100322.34
2022-10-29T03:16:21.780Z,100318.41
2022-10-29T03:18:48.431Z,100312.47
2022-10-29T03:21:15.074Z,100307.31
2022-10-29T03:23:41.688Z,100307.72
2022-10-29T03:26:11.049Z,100305.78
2022-10-29T03:28:38.640Z,100299.41
2022-10-29T03:31:05.458Z,100296.72
2022-10-29T03:33:32.058Z,100297.94
2022-10-29T03:36:00.037Z,100296.41
2022-10-29T03:38:27.121Z,100293.63
2022-10-29T03:40:54.132Z,100291.66
2022-10-29T03:43:21.181Z,100286.09
2022-10-29T03:45:55.144Z,100273.81
2022-10-29T03:48:23.726Z,100270.25
2022-10-29T03:50:57.201Z,100257.13
2022-10-29T03:53:24.826Z,100254.00
2022-10-29T03:55:53.123Z,100248.06
2022-10-29T03:58:20.332Z,100243.72
2022-10-29T04:01:13.401Z,100229.06
2022-10-29T04:03:42.338Z,100239.00
2022-10-29T04:06:12.306Z,100235.50
2022-10-29T04:08:39.292Z,100221.22
2022-10-29T04:11:05.987Z,100231.97
2022-10-29T04:13:32.641Z,100209.00
2022-10-29T04:15:59.231Z,100201.53
2022-10-29T04:18:25.933Z,100194.41
2022-10-29T04:29:13.774Z,100163.53
2022-10-29T04:31:40.420Z,100163.53
2022-10-29T04:34:07.061Z,100165.91
2022-10-29T04:36:33.700Z,100153.97
2022-10-29T04:39:00.356Z,100174.22
2022-10-29T04:41:26.965Z,100161.50
2022-10-29T04:43:53.577Z,100147.25
2022-10-29T04:46:20.222Z,100150.03
2022-10-29T04:48:46.899Z,100146.84
2022-10-29T04:51:25.484Z,100157.16
2022-10-29T04:53:52.138Z,100160.28
2022-10-29T04:56:18.991Z,100164.25
2022-10-29T04:58:46.623Z,100165.41
2022-10-29T05:01:13.472Z,100159.06
2022-10-29T05:03:40.232Z,100171.34
2022-10-29T05:06:07.644Z,100171.34
2022-10-29T05:08:34.486Z,100165.81
2022-10-29T05:11:05.408Z,100171.34
2022-10-29T05:13:32.939Z,100161.41
2022-10-29T05:15:59.675Z,100157.81
2022-10-29T05:18:26.553Z,100152.28
2022-10-29T05:20:57.462Z,100141.16
2022-10-29T05:23:24.572Z,100142.34
2022-10-29T05:25:52.350Z,100129.63
2022-10-29T05:28:22.195Z,100130.03
2022-10-29T05:30:50.569Z,100122.03
2022-10-29T05:33:19.956Z,100118.84
2022-10-29T05:35:47.261Z,100117.22
2022-10-29T05:38:14.715Z,100105.72
2022-10-29T05:40:42.835Z,100105.28
2022-10-29T05:43:09.600Z,100099.31
2022-10-29T05:45:36.227Z,100093.31
2022-10-29T05:48:04.448Z,100095.66
2022-10-29T05:50:32.363Z,100093.63
2022-10-29T05:53:01.224Z,100088.09
2022-10-29T05:55:29.418Z,100100.38
2022-10-29T05:58:01.441Z,100096.38
2022-10-29T06:00:29.935Z,100092.38
2022-10-29T06:02:57.018Z,100079.66
2022-10-29T06:05:24.095Z,100082.78
2022-10-29T06:08:01.234Z,100062.13
2022-10-29T06:10:29.722Z,100069.69
2022-10-29T06:12:56.584Z,100066.09
2022-10-29T06:15:23.312Z,100065.69
2022-10-29T06:17:50.493Z,100050.94
2022-10-29T06:20:20.906Z,100058.84
2022-10-29T06:22:48.210Z,100061.94
2022-10-29T06:25:14.900Z,100043.59
2022-10-29T06:27:41.514Z,100057.88
2022-10-29T06:30:08.794Z,100035.66
2022-10-29T06:32:35.411Z,100037.28
2022-10-29T06:35:02.063Z,100030.91
2022-10-29T06:37:29.737Z,100035.66
2022-10-29T06:39:56.354Z,100035.25
2022-10-29T06:42:22.973Z,100024.56
2022-10-29T06:44:49.616Z,100013.84
2022-10-29T06:47:16.226Z,100013.47
2022-10-29T06:49:42.846Z,100002.38
2022-10-29T06:52:09.552Z,100003.53
2022-10-29T06:54:37.651Z,99988.50
2022-10-29T06:57:04.273Z,99982.94
2022-10-29T06:59:30.891Z,99980.56
2022-10-29T07:01:57.561Z,99976.97
2022-10-29T07:04:24.422Z,99969.81
2022-10-29T07:06:51.143Z,99972.59
2022-10-29T07:09:17.754Z,99972.16
2022-10-29T07:11:44.472Z,99973.22
2022-10-29T07:14:11.143Z,99976.34
2022-10-29T07:16:37.860Z,99972.69
2022-10-29T07:19:04.995Z,99973.88
2022-10-29T07:21:31.896Z,99965.13
2022-10-29T07:23:58.689Z,99940.94
2022-10-29T07:26:25.394Z,99931.47
2022-10-29T07:28:57.052Z,99932.28
2022-10-29T07:31:23.821Z,99932.28
2022-10-29T07:33:50.451Z,99947.25
2022-10-29T07:36:17.106Z,99928.16
2022-10-29T07:38:43.684Z,99923.63
2022-10-29T07:41:10.303Z,99916.78
2022-10-29T07:43:36.860Z,99909.56
2022-10-29T07:46:12.164Z,99911.84
2022-10-29T07:48:38.986Z,99899.84
2022-10-29T07:51:06.580Z,99905.34
2022-10-29T07:53:33.241Z,99904.09
2022-10-29T07:55:59.945Z,99885.44
2022-10-29T07:58:26.664Z,99891.72
2022-10-29T08:00:54.048Z,99881.84
2022-10-29T08:03:20.970Z,99879.72
2022-10-29T08:05:56.420Z,99872.88
2022-10-29T08:08:23.534Z,99870.81
2022-10-29T08:10:50.183Z,99863.63
2022-10-29T08:13:16.845Z,99859.63
2022-10-29T08:15:46.712Z,99848.91
2022-10-29T08:18:17.737Z,99845.72
2022-10-29T08:20:45.296Z,99839.00
2022-10-29T08:23:13.229Z,99837.47
2022-10-29T08:25:43.367Z,99833.16
2022-10-29T08:28:12.781Z,99828.44
2022-10-29T08:30:40.512Z,99820.94
2022-10-29T08:33:07.759Z,99824.94
2022-10-29T08:35:34.641Z,99813.13
2022-10-29T08:38:01.439Z,99814.72
2022-10-29T08:40:46.614Z,99817.94
2022-10-29T08:43:22.280Z,99815.56
2022-10-29T08:45:52.017Z,99814.41
2022-10-29T08:48:33.609Z,99816.38
2022-10-29T08:51:37.391Z,99799.69
2022-10-29T08:54:29.337Z,99786.16
2022-10-29T08:56:57.721Z,99775.00
2022-10-29T08:59:26.473Z,99783.72
2022-10-29T09:01:54.016Z,99786.06
2022-10-29T09:04:35.441Z,99774.16
2022-10-29T09:07:26.585Z,99770.59
2022-10-29T09:10:16.947Z,99767.09
2022-10-29T09:13:18.942Z,99772.25
2022-10-29T09:15:57.543Z,99765.16
2022-10-29T09:18:55.566Z,99760.09
2022-10-29T09:21:52.548Z,99752.25
2022-10-29T09:24:49.685Z,99730.22
2022-10-29T09:27:35.337Z,99720.38
2022-10-29T09:30:10.976Z,99717.28
2022-10-29T09:32:59.393Z,99701.97
2022-10-29T09:35:38.450Z,99695.69
2022-10-29T09:38:30.468Z,99687.06
2022-10-29T09:41:01.579Z,99683.19
2022-10-29T09:43:28.148Z,99676.50
2022-10-29T09:46:09.087Z,99674.53
2022-10-29T09:48:55.168Z,99668.28
2022-10-29T09:51:31.228Z,99668.75
2022-10-29T09:53:57.928Z,99648.56
2022-10-29T09:56:24.587Z,99643.03
2022-10-29T09:58:57.086Z,99628.41
2022-10-29T10:01:23.817Z,99615.38
2022-10-29T10:03:56.237Z,99605.09
2022-10-29T10:06:22.982Z,99598.00
2022-10-29T10:09:00.719Z,99590.88
2022-10-29T10:11:41.329Z,99586.97
2022-10-29T10:14:20.903Z,99571.94
2022-10-29T10:16:58.164Z,99570.78
2022-10-29T10:19:27.498Z,99558.53
2022-10-29T10:22:03.135Z,99548.31
2022-10-29T10:24:33.185Z,99542.03
2022-10-29T10:27:01.184Z,99538.97
2022-10-29T10:29:28.468Z,99554.94
2022-10-29T10:31:58.077Z,99553.84
2022-10-29T10:34:26.935Z,99555.09
2022-10-29T10:37:14.796Z,99542.41
2022-10-29T10:39:44.841Z,99534.50
2022-10-29T10:42:17.384Z,99532.13
2022-10-29T10:44:57.952Z,99548.00
2022-10-29T10:47:32.717Z,99541.69
2022-10-29T10:50:25.596Z,99544.88
2022-10-29T10:52:57.064Z,99539.28
2022-10-29T10:55:30.892Z,99544.84
2022-10-29T10:58:17.564Z,99528.56
2022-10-29T11:00:50.447Z,99550.44
2022-10-29T11:03:28.115Z,99550.41
2022-10-29T11:06:08.634Z,99545.25
2022-10-29T11:08:43.841Z,99539.28
2022-10-29T11:11:13.329Z,99533.72
2022-10-29T11:13:41.882Z,99523.75
2022-10-29T11:16:44.779Z,99528.13
2022-10-29T11:19:40.012Z,99524.09
2022-10-29T11:22:27.833Z,99516.13
2022-10-29T11:25:00.614Z,99500.97
2022-10-29T11:27:43.105Z,99489.03
2022-10-29T11:30:12.758Z,99485.84
2022-10-29T11:33:13.003Z,99486.59
2022-10-29T11:36:06.332Z,99480.22
2022-10-29T11:38:49.098Z,99467.91
2022-10-29T11:41:27.859Z,99463.09
2022-10-29T11:43:54.879Z,99457.13
2022-10-29T11:46:58.779Z,99479.38
2022-10-29T11:49:43.801Z,99475.78
2022-10-29T11:52:34.738Z,99479.38
2022-10-29T11:55:11.504Z,99490.91
2022-10-29T11:58:11.209Z,99490.47
2022-10-29T12:01:09.324Z,99498.03
2022-10-29T12:03:52.236Z,99511.16
2022-10-29T12:06:33.348Z,99504.03
2022-10-29T12:09:16.632Z,99514.38
2022-10-29T12:12:12.869Z,99508.81
2022-10-29T12:14:51.804Z,99510.41
2022-10-29T12:17:36.135Z,99516.78
2022-10-29T12:20:16.051Z,99504.84
2022-10-29T12:23:05.877Z,99504.03
2022-10-29T12:25:49.571Z,99496.03
2022-10-29T12:28:21.640Z,99492.03
2022-10-29T12:31:04.025Z,99496.41
2022-10-29T12:33:56.266Z,99488.44
2022-10-29T12:36:41.562Z,99490.38
2022-10-29T12:39:22.557Z,99486.00
2022-10-29T12:41:52.061Z,99490.00
2022-10-29T12:44:45.279Z,99488.81
2022-10-29T12:47:23.979Z,99493.66
2022-10-29T12:49:55.469Z,99497.28
2022-10-29T12:52:41.506Z,99488.91
2022-10-29T12:55:12.484Z,99498.47
2022-10-29T12:57:39.634Z,99497.28
2022-10-29T13:00:24.438Z,99483.75
2022-10-29T13:02:53.860Z,99473.00
2022-10-29T13:05:39.236Z,99461.47
2022-10-29T13:08:05.792Z,99456.72
2022-10-29T13:10:35.812Z,99457.88
2022-10-29T13:13:15.629Z,99457.06
2022-10-29T13:15:59.073Z,99454.25
2022-10-29T13:18:47.005Z,99459.38
2022-10-29T13:21:13.609Z,99453.78
2022-10-29T13:23:40.732Z,99455.34
2022-10-29T13:26:08.572Z,99457.69
2022-10-29T13:28:37.968Z,99448.16
2022-10-29T13:31:04.563Z,99442.56
2022-10-29T13:33:31.089Z,99452.09
2022-10-29T13:36:01.147Z,99447.31
2022-10-29T13:38:46.919Z,99444.13
2022-10-29T13:41:39.890Z,99439.41
2022-10-29T13:44:25.115Z,99435.38
2022-10-29T13:47:14.901Z,99430.97
2022-10-29T13:49:45.367Z,99433.78
2022-10-29T13:52:18.434Z,99434.19
2022-10-29T13:54:52.431Z,99422.22
2022-10-29T13:57:25.454Z,99429.75
2022-10-29T14:00:01.825Z,99437.69
2022-10-29T14:02:32.387Z,99432.81
2022-10-29T14:05:18.472Z,99423.47
2022-10-29T14:08:13.680Z,99412.56
2022-10-29T14:10:40.222Z,99428.84
2022-10-29T14:13:12.538Z,99438.72
2022-10-29T14:15:39.978Z,99431.19
2022-10-29T14:18:19.349Z,99451.63
2022-10-29T14:20:57.945Z,99441.28
2022-10-29T14:23:25.638Z,99434.50
2022-10-29T14:25:57.566Z,99432.41
2022-10-29T14:28:32.773Z,99437.91
2022-10-29T14:31:06.945Z,99421.06
2022-10-29T14:33:36.017Z,99409.84
2022-10-29T14:36:20.762Z,99423.47
2022-10-29T14:38:59.355Z,99429.81
2022-10-29T14:41:28.799Z,99427.34
2022-10-29T14:44:18.934Z,99429.69
2022-10-29T14:47:05.784Z,99420.09
2022-10-29T14:49:35.454Z,99417.75
2022-10-29T14:52:17.488Z,99421.78
2022-10-29T14:54:48.537Z,99413.06
2022-10-29T14:57:18.032Z,99407.19
2022-10-29T15:00:03.472Z,99422.78
2022-10-29T15:02:38.598Z,99406.81
2022-10-29T15:05:30.508Z,99413.22
2022-10-29T15:08:14.942Z,99404.91
2022-10-29T15:10:54.109Z,99423.72
2022-10-29T15:13:40.968Z,99427.03
2022-10-29T15:16:18.749Z,99425.44
2022-10-29T15:18:49.529Z,99445.84
2022-10-29T15:21:33.252Z,99465.44
2022-10-29T15:24:06.562Z,99448.75
2022-10-29T15:26:43.645Z,99428.06
2022-10-29T15:29:12.092Z,99456.41
2022-10-29T15:31:46.805Z,99442.84
2022-10-29T15:34:21.713Z,99439.28
2022-10-29T15:36:50.763Z,99439.34
2022-10-29T15:40:05.836Z,99434.59
2022-10-29T15:42:34.930Z,99450.19
2022-10-29T15:45:07.758Z,99461.78
2022-10-29T15:47:40.342Z,99460.97
2022-10-29T15:50:11.568Z,99453.03
2022-10-29T15:52:41.474Z,99457.44
2022-10-29T15:55:23.442Z,99466.56
2022-10-29T15:57:53.558Z,99469.34
2022-10-29T16:00:23.203Z,99484.91
2022-10-29T16:02:50.446Z,99483.28
2022-10-29T16:05:18.107Z,99489.63
2022-10-29T16:07:46.938Z,99484.84
2022-10-29T16:10:21.490Z,99492.84
2022-10-29T16:12:49.990Z,99479.34
2022-10-29T16:15:19.774Z,99471.81
2022-10-29T16:17:47.204Z,99473.06
2022-10-29T16:20:19.096Z,99464.34
2022-10-29T16:22:48.063Z,99473.94
2022-10-29T16:25:24.162Z,99472.34
2022-10-29T16:27:51.555Z,99473.97
2022-10-29T16:30:19.342Z,99485.94
2022-10-29T16:32:47.169Z,99495.13
2022-10-29T16:35:23.446Z,99493.94
2022-10-29T16:37:51.331Z,99498.31
2022-10-29T16:40:19.468Z,99508.66
2022-10-29T16:42:46.530Z,99513.03
2022-10-29T16:45:20.577Z,99515.44
2022-10-29T16:47:47.768Z,99534.53
2022-10-29T16:50:20.332Z,99525.78
2022-10-29T16:52:47.171Z,99534.53
2022-10-29T16:55:14.390Z,99532.13
2022-10-29T16:57:41.234Z,99537.31
2022-10-29T17:00:08.629Z,99546.44
2022-10-29T17:02:35.313Z,99540.47
2022-10-29T17:05:02.069Z,99542.44
2022-10-29T17:07:28.668Z,99566.69
2022-10-29T17:09:55.331Z,99562.69
2022-10-29T17:12:21.985Z,99571.06
2022-10-29T17:14:48.631Z,99572.22
2022-10-29T17:17:15.271Z,99568.63
2022-10-29T17:19:41.886Z,99578.94
2022-10-29T17:22:18.847Z,99577.31
2022-10-29T17:24:45.830Z,99579.72
2022-10-29T17:27:12.996Z,99588.44
2022-10-29T17:29:39.694Z,99594.75
2022-10-29T17:32:07.872Z,99580.06
2022-10-29T17:34:35.939Z,99597.94
2022-10-29T17:37:02.829Z,99601.94
2022-10-29T17:39:29.501Z,99605.88
2022-10-29T17:41:56.201Z,99616.59
2022-10-29T17:44:22.854Z,99613.00
2022-10-29T17:46:49.511Z,99616.97
2022-10-29T17:49:16.231Z,99612.19
2022-10-29T17:51:42.847Z,99620.09
2022-10-29T17:54:12.532Z,99627.97
2022-10-29T17:56:39.128Z,99633.13
2022-10-29T17:59:05.801Z,99647.78
2022-10-29T18:01:32.632Z,99652.13
2022-10-29T18:04:03.497Z,99646.53
2022-10-29T18:06:30.502Z,99656.06
2022-10-29T18:08:57.380Z,99665.59
2022-10-29T18:11:25.349Z,99677.47
2022-10-29T18:13:52.613Z,99684.19
2022-10-29T18:16:21.509Z,99679.00
2022-10-29T18:19:01.326Z,99688.09
2022-10-29T18:21:28.658Z,99688.09
2022-10-29T18:23:55.252Z,99687.69
2022-10-29T18:26:28.562Z,99692.84
2022-10-29T18:28:55.965Z,99698.75
2022-10-29T18:31:25.319Z,99682.09
2022-10-29T18:33:52.011Z,99695.97
2022-10-29T18:36:23.107Z,99698.34
2022-10-29T18:38:51.362Z,99704.66
2022-10-29T18:41:18.575Z,99688.38
2022-10-29T18:43:45.247Z,99698.63
2022-10-29T18:46:12.209Z,99698.97
2022-10-29T18:48:41.005Z,99715.63
2022-10-29T18:51:12.916Z,99708.53
2022-10-29T18:53:39.957Z,99710.13
2022-10-29T18:56:12.278Z,99710.56
2022-10-29T18:58:39.328Z,99713.78
2022-10-29T19:01:08.595Z,99722.53
2022-10-29T19:03:36.351Z,99712.63
2022-10-29T19:06:07.487Z,99726.94
2022-10-29T19:08:40.638Z,99725.75
2022-10-29T19:11:10.313Z,99731.72
2022-10-29T19:13:37.073Z,99730.16
2022-10-29T19:16:06.509Z,99731.38
2022-10-29T19:18:33.986Z,99738.13
2022-10-29T19:21:06.262Z,99726.22
2022-10-29T19:23:33.467Z,99737.72
2022-10-29T19:26:10.727Z,99731.38
2022-10-29T19:28:38.255Z,99732.53
2022-10-29T19:31:09.381Z,99737.31
2022-10-29T19:33:36.972Z,99734.91
2022-10-29T19:36:05.680Z,99733.75
2022-10-29T19:38:32.748Z,99734.50
2022-10-29T19:40:59.951Z,99720.63
2022-10-29T19:43:29.142Z,99735.25
2022-10-29T19:45:56.487Z,99733.25
2022-10-29T19:48:23.500Z,99729.25
2022-10-29T19:50:55.154Z,99738.75
2022-10-29T19:53:23.540Z,99724.47
2022-10-29T19:55:50.576Z,99736.75
2022-10-29T19:58:22.044Z,99732.34
2022-10-29T20:00:49.192Z,99726.00
2022-10-29T20:03:16.949Z,99742.59
2022-10-29T20:05:45.263Z,99744.97
2022-10-29T20:08:15.801Z,99751.72
2022-10-29T20:10:43.396Z,99754.56
2022-10-29T20:13:10.216Z,99755.31
2022-10-29T20:15:44.737Z,99745.00
2022-10-29T20:18:11.553Z,99756.13
2022-10-29T20:20:38.159Z,99759.66
2022-10-29T20:23:05.095Z,99760.88
2022-10-29T20:25:31.699Z,99766.41
2022-10-29T20:27:59.505Z,99762.03
2022-10-29T20:30:26.123Z,99756.88
2022-10-29T20:32:52.709Z,99766.38
2022-10-29T20:35:19.415Z,99757.69
2022-10-29T20:37:46.042Z,99765.63
2022-10-29T20:40:13.202Z,99757.69
2022-10-29T20:42:39.877Z,99766.81
2022-10-29T20:45:07.289Z,99757.69
2022-10-29T20:47:33.986Z,99764.44
2022-10-29T20:50:00.666Z,99758.44
2022-10-29T20:52:27.836Z,99758.44
2022-10-29T20:54:54.460Z,99755.31
2022-10-29T20:57:21.175Z,99761.69
2022-10-29T20:59:47.702Z,99758.94
2022-10-29T21:02:14.794Z,99744.25
2022-10-29T21:04:41.585Z,99742.69
2022-10-29T21:07:08.288Z,99752.59
2022-10-29T21:09:34.988Z,99739.50
2022-10-29T21:12:01.849Z,99743.50
2022-10-29T21:14:29.708Z,99745.47
2022-10-29T21:16:56.604Z,99752.22
2022-10-29T21:19:24.122Z,99757.34
2022-10-29T21:21:50.766Z,99756.94
2022-10-29T21:24:20.278Z,99764.91
2022-10-29T21:26:47.096Z,99763.34
2022-10-29T21:29:13.763Z,99756.22
2022-10-29T21:31:40.556Z,99757.00
2022-10-29T21:34:07.251Z,99760.22
2022-10-29T21:36:33.863Z,99753.88
2022-10-29T21:39:00.464Z,99753.09
2022-10-29T21:41:27.106Z,99763.44
2022-10-29T21:43:53.763Z,99767.44
2022-10-29T21:46:20.438Z,99758.72
2022-10-29T21:48:47.102Z,99747.63
2022-10-29T21:51:16.216Z,99758.72
2022-10-29T21:53:43.222Z,99755.16
2022-10-29T21:56:12.586Z,99751.56
2022-10-29T21:58:39.151Z,99756.31
2022-10-29T22:01:09.273Z,99757.94
2022-10-29T22:03:37.667Z,99745.22
2022-10-29T22:06:14.273Z,99744.41
2022-10-29T22:08:41.156Z,99737.28
2022-10-29T22:11:08.714Z,99730.13
2022-10-29T22:13:36.082Z,99737.28
2022-10-29T22:16:04.287Z,99732.53
2022-10-29T22:18:32.164Z,99729.41
2022-10-29T22:21:06.080Z,99720.66
2022-10-29T22:23:32.909Z,99727.81
2022-10-29T22:25:59.859Z,99723.84
2022-10-29T22:28:26.498Z,99721.50
2022-10-29T22:31:01.130Z,99719.16
2022-10-29T22:33:29.113Z,99717.19
2022-10-29T22:35:56.084Z,99713.63
2022-10-29T22:38:22.766Z,99718.41
2022-10-29T22:40:49.392Z,99723.59
2022-10-29T22:43:16.242Z,99732.69
2022-10-29T22:45:45.209Z,99727.94
2022-10-29T22:48:12.058Z,99733.13
2022-10-29T22:50:38.673Z,99735.13
2022-10-29T22:53:05.325Z,99741.88
2022-10-29T22:55:31.961Z,99736.00
2022-10-29T22:57:58.568Z,99733.56
2022-10-29T23:00:25.208Z,99740.69
2022-10-29T23:02:52.101Z,99730.34
2022-10-29T23:05:18.721Z,99724.78
2022-10-29T23:07:45.353Z,99729.16
2022-10-29T23:10:11.998Z,99727.59
2022-10-29T23:12:38.717Z,99735.13
2022-10-29T23:15:06.044Z,99731.50
2022-10-29T23:17:32.707Z,99730.66
2022-10-29T23:19:59.385Z,99727.06
2022-10-29T23:22:27.610Z,99726.22
2022-10-29T23:24:54.957Z,99732.50
2022-10-29T23:27:21.602Z,99722.91
2022-10-29T23:29:48.327Z,99741.94
2022-10-29T23:32:14.920Z,99736.38
2022-10-29T23:34:41.509Z,99739.56
2022-10-29T23:37:09.977Z,99745.16
2022-10-29T23:39:38.013Z,99739.59
2022-10-29T23:42:04.706Z,99736.44
2022-10-29T23:44:31.320Z,99735.66
2022-10-29T23:46:58.006Z,99748.34
2022-10-29T23:49:24.741Z,99749.53
2022-10-29T23:51:51.337Z,99744.75
2022-10-29T23:54:17.909Z,99737.25
2022-10-29T23:56:44.547Z,99732.09
2022-10-29T23:59:11.162Z,99736.44
